New Southgate, United Kingdom
Current Conditions -  °F | °C
As of 12:50 PM on Saturday 25 Oct 2014 (Local Time) from EGLC Reporting Station
Overcast Overcast  
Wind Chill: 59°   Ceiling: 4000
Heat Index: 59°   Visibility: 6mi
Dew Point: 43°   Wind: 14mph
Humidity: 55%   Direction: 260°W
Pressure: 30.09"   Gusts: NA
Location:  51.61°N, 0.13°W
Report Text: EGLC 251150Z AUTO 26012KT 9999 OVC040/// 15/06 Q1019
Loading
Personal Weather Stations






























Interactive Weather Map
Tropical Storm Tracking
New forecast layout! Learn more

10-Day Weather Forecast

Advertisements
Track Severe Weather on mobile